sensor_id;sensor_type;location;lat;lon;timestamp;pressure;altitude;pressure_sealevel;temperature;humidity
78800;BME280;68148;55.328;86.106;2023-06-05T00:02:19;99758.94;;;22.52;52.39
78800;BME280;68148;55.328;86.106;2023-06-05T00:04:45;99757.34;;;22.51;52.77
78800;BME280;68148;55.328;86.106;2023-06-05T00:07:11;99761.50;;;22.94;51.09
78800;BME280;68148;55.328;86.106;2023-06-05T00:09:37;99763.81;;;22.65;52.00
78800;BME280;68148;55.328;86.106;2023-06-05T00:12:03;99766.50;;;22.50;52.86
78800;BME280;68148;55.328;86.106;2023-06-05T00:14:29;99775.28;;;22.30;52.96
78800;BME280;68148;55.328;86.106;2023-06-05T00:16:55;99772.59;;;21.83;54.22
78800;BME280;68148;55.328;86.106;2023-06-05T00:19:21;99780.28;;;21.69;54.69
78800;BME280;68148;55.328;86.106;2023-06-05T00:21:47;99787.38;;;21.48;55.11
78800;BME280;68148;55.328;86.106;2023-06-05T00:24:13;99778.78;;;21.46;55.24
78800;BME280;68148;55.328;86.106;2023-06-05T00:26:39;99779.28;;;21.43;55.38
78800;BME280;68148;55.328;86.106;2023-06-05T00:29:05;99781.78;;;21.22;56.39
78800;BME280;68148;55.328;86.106;2023-06-05T00:31:30;99786.50;;;21.10;56.88
78800;BME280;68148;55.328;86.106;2023-06-05T00:33:56;99785.03;;;21.24;56.48
78800;BME280;68148;55.328;86.106;2023-06-05T00:36:22;99774.47;;;21.45;55.78
78800;BME280;68148;55.328;86.106;2023-06-05T00:38:51;99769.97;;;21.50;55.96
78800;BME280;68148;55.328;86.106;2023-06-05T00:41:17;99780.78;;;21.66;55.84
78800;BME280;68148;55.328;86.106;2023-06-05T00:43:43;99778.44;;;21.74;55.86
78800;BME280;68148;55.328;86.106;2023-06-05T00:46:09;99780.88;;;21.76;55.59
78800;BME280;68148;55.328;86.106;2023-06-05T00:48:36;99780.13;;;21.86;55.16
78800;BME280;68148;55.328;86.106;2023-06-05T00:51:02;99776.34;;;21.82;56.35
78800;BME280;68148;55.328;86.106;2023-06-05T00:53:30;99763.22;;;21.85;56.52
78800;BME280;68148;55.328;86.106;2023-06-05T00:55:58;99768.09;;;21.93;56.29
78800;BME280;68148;55.328;86.106;2023-06-05T00:58:30;99765.94;;;21.95;56.37
78800;BME280;68148;55.328;86.106;2023-06-05T01:00:57;99763.28;;;22.00;56.02
78800;BME280;68148;55.328;86.106;2023-06-05T01:03:24;99770.44;;;22.27;55.39
78800;BME280;68148;55.328;86.106;2023-06-05T01:05:50;99761.25;;;22.18;55.30
78800;BME280;68148;55.328;86.106;2023-06-05T01:08:16;99767.50;;;22.39;54.94
78800;BME280;68148;55.328;86.106;2023-06-05T01:10:44;99768.38;;;22.55;54.29
78800;BME280;68148;55.328;86.106;2023-06-05T01:13:25;99760.03;;;22.51;54.24
78800;BME280;68148;55.328;86.106;2023-06-05T01:15:52;99763.81;;;22.55;54.32
78800;BME280;68148;55.328;86.106;2023-06-05T01:18:20;99761.63;;;22.42;55.11
78800;BME280;68148;55.328;86.106;2023-06-05T01:20:46;99772.91;;;22.39;55.63
78800;BME280;68148;55.328;86.106;2023-06-05T01:23:12;99767.53;;;22.44;55.19
78800;BME280;68148;55.328;86.106;2023-06-05T01:25:38;99756.25;;;22.47;54.98
78800;BME280;68148;55.328;86.106;2023-06-05T01:28:23;99759.00;;;22.62;54.21
78800;BME280;68148;55.328;86.106;2023-06-05T01:31:09;99765.16;;;22.53;54.96
78800;BME280;68148;55.328;86.106;2023-06-05T01:33:43;99762.47;;;22.53;55.13
78800;BME280;68148;55.328;86.106;2023-06-05T01:36:10;99762.22;;;22.64;54.98
78800;BME280;68148;55.328;86.106;2023-06-05T01:38:38;99765.47;;;22.82;54.43
78800;BME280;68148;55.328;86.106;2023-06-05T01:41:05;99769.53;;;22.84;54.80
78800;BME280;68148;55.328;86.106;2023-06-05T01:43:32;99772.03;;;23.11;53.87
78800;BME280;68148;55.328;86.106;2023-06-05T01:45:59;99761.53;;;23.35;53.38
78800;BME280;68148;55.328;86.106;2023-06-05T01:48:26;99774.19;;;23.50;53.28
78800;BME280;68148;55.328;86.106;2023-06-05T01:50:55;99772.84;;;23.78;52.49
78800;BME280;68148;55.328;86.106;2023-06-05T01:53:21;99776.31;;;23.84;52.14
78800;BME280;68148;55.328;86.106;2023-06-05T01:55:47;99773.06;;;23.92;51.97
78800;BME280;68148;55.328;86.106;2023-06-05T01:58:13;99772.81;;;23.98;52.04
78800;BME280;68148;55.328;86.106;2023-06-05T02:00:39;99775.69;;;24.17;51.66
78800;BME280;68148;55.328;86.106;2023-06-05T02:03:06;99770.50;;;24.46;51.40
78800;BME280;68148;55.328;86.106;2023-06-05T02:05:32;99768.00;;;24.55;50.88
78800;BME280;68148;55.328;86.106;2023-06-05T02:07:58;99766.88;;;24.61;50.71
78800;BME280;68148;55.328;86.106;2023-06-05T02:10:24;99760.84;;;24.85;50.20
78800;BME280;68148;55.328;86.106;2023-06-05T02:12:50;99760.91;;;24.69;49.20
78800;BME280;68148;55.328;86.106;2023-06-05T02:15:16;99764.19;;;24.61;49.74
78800;BME280;68148;55.328;86.106;2023-06-05T02:17:43;99764.34;;;24.85;49.45
78800;BME280;68148;55.328;86.106;2023-06-05T02:20:12;99761.25;;;25.02;49.17
78800;BME280;68148;55.328;86.106;2023-06-05T02:22:39;99758.25;;;25.04;48.73
78800;BME280;68148;55.328;86.106;2023-06-05T02:25:05;99755.16;;;25.26;48.31
78800;BME280;68148;55.328;86.106;2023-06-05T02:27:31;99756.84;;;25.16;48.13
78800;BME280;68148;55.328;86.106;2023-06-05T02:29:57;99753.78;;;25.28;48.20
78800;BME280;68148;55.328;86.106;2023-06-05T02:32:23;99749.88;;;25.39;48.24
78800;BME280;68148;55.328;86.106;2023-06-05T02:34:49;99745.16;;;25.55;47.61
78800;BME280;68148;55.328;86.106;2023-06-05T02:37:16;99749.22;;;25.23;48.28
78800;BME280;68148;55.328;86.106;2023-06-05T02:39:42;99739.06;;;25.44;48.21
78800;BME280;68148;55.328;86.106;2023-06-05T02:42:08;99745.16;;;25.55;47.67
78800;BME280;68148;55.328;86.106;2023-06-05T02:44:34;99739.03;;;25.79;47.42
78800;BME280;68148;55.328;86.106;2023-06-05T02:47:00;99740.50;;;25.90;47.63
78800;BME280;68148;55.328;86.106;2023-06-05T02:49:26;99740.66;;;25.98;46.84
78800;BME280;68148;55.328;86.106;2023-06-05T02:51:52;99741.22;;;26.01;47.21
78800;BME280;68148;55.328;86.106;2023-06-05T02:54:18;99735.59;;;26.16;47.00
78800;BME280;68148;55.328;86.106;2023-06-05T02:56:44;99734.09;;;26.29;46.79
78800;BME280;68148;55.328;86.106;2023-06-05T02:59:10;99735.72;;;26.30;46.34
78800;BME280;68148;55.328;86.106;2023-06-05T03:01:36;99723.72;;;26.36;46.10
78800;BME280;68148;55.328;86.106;2023-06-05T03:04:02;99727.31;;;26.31;45.96
78800;BME280;68148;55.328;86.106;2023-06-05T03:06:29;99719.91;;;26.37;46.51
78800;BME280;68148;55.328;86.106;2023-06-05T03:08:55;99726.84;;;26.48;46.37
78800;BME280;68148;55.328;86.106;2023-06-05T03:11:21;99723.03;;;26.49;46.33
78800;BME280;68148;55.328;86.106;2023-06-05T03:13:47;99717.47;;;26.59;46.28
78800;BME280;68148;55.328;86.106;2023-06-05T03:16:13;99720.84;;;26.51;46.41
78800;BME280;68148;55.328;86.106;2023-06-05T03:18:39;99720.16;;;26.59;46.07
78800;BME280;68148;55.328;86.106;2023-06-05T03:21:04;99710.38;;;26.82;45.82
78800;BME280;68148;55.328;86.106;2023-06-05T03:23:30;99708.63;;;27.05;45.57
78800;BME280;68148;55.328;86.106;2023-06-05T03:25:56;99714.34;;;27.23;45.18
78800;BME280;68148;55.328;86.106;2023-06-05T03:28:23;99707.75;;;27.29;44.43
78800;BME280;68148;55.328;86.106;2023-06-05T03:30:49;99701.94;;;27.49;44.14
78800;BME280;68148;55.328;86.106;2023-06-05T03:33:15;99706.97;;;27.56;43.69
78800;BME280;68148;55.328;86.106;2023-06-05T03:35:41;99707.28;;;27.68;43.49
78800;BME280;68148;55.328;86.106;2023-06-05T03:38:09;99706.69;;;27.71;42.94
78800;BME280;68148;55.328;86.106;2023-06-05T03:40:35;99694.47;;;27.74;42.38
78800;BME280;68148;55.328;86.106;2023-06-05T03:43:01;99695.34;;;27.83;41.27
78800;BME280;68148;55.328;86.106;2023-06-05T03:45:27;99697.00;;;27.84;41.68
78800;BME280;68148;55.328;86.106;2023-06-05T03:47:53;99689.03;;;27.87;41.92
78800;BME280;68148;55.328;86.106;2023-06-05T03:50:20;99687.63;;;27.90;42.20
78800;BME280;68148;55.328;86.106;2023-06-05T03:52:46;99683.59;;;28.15;41.71
78800;BME280;68148;55.328;86.106;2023-06-05T03:55:12;99679.75;;;28.16;40.04
78800;BME280;68148;55.328;86.106;2023-06-05T03:57:38;99680.84;;;28.29;38.83
78800;BME280;68148;55.328;86.106;2023-06-05T04:00:06;99683.19;;;28.58;39.02
78800;BME280;68148;55.328;86.106;2023-06-05T04:02:32;99681.59;;;28.79;35.54
78800;BME280;68148;55.328;86.106;2023-06-05T04:04:57;99676.00;;;28.76;34.21
78800;BME280;68148;55.328;86.106;2023-06-05T04:07:23;99672.91;;;28.91;33.36
78800;BME280;68148;55.328;86.106;2023-06-05T04:09:49;99666.84;;;28.94;33.60
78800;BME280;68148;55.328;86.106;2023-06-05T04:12:15;99671.66;;;29.19;34.62
78800;BME280;68148;55.328;86.106;2023-06-05T04:14:40;99670.00;;;29.41;33.61
78800;BME280;68148;55.328;86.106;2023-06-05T04:17:06;99657.75;;;29.52;33.62
78800;BME280;68148;55.328;86.106;2023-06-05T04:19:32;99669.41;;;29.53;33.40
78800;BME280;68148;55.328;86.106;2023-06-05T04:21:58;99664.78;;;29.53;31.72
78800;BME280;68148;55.328;86.106;2023-06-05T04:24:24;99656.63;;;29.53;31.32
78800;BME280;68148;55.328;86.106;2023-06-05T04:26:54;99661.97;;;29.67;32.12
78800;BME280;68148;55.328;86.106;2023-06-05T04:29:20;99656.56;;;29.84;31.30
78800;BME280;68148;55.328;86.106;2023-06-05T04:31:46;99659.19;;;29.89;32.30
78800;BME280;68148;55.328;86.106;2023-06-05T04:34:12;99658.69;;;29.96;31.91
78800;BME280;68148;55.328;86.106;2023-06-05T04:36:39;99647.50;;;30.06;32.03
78800;BME280;68148;55.328;86.106;2023-06-05T04:39:05;99649.47;;;30.23;29.62
78800;BME280;68148;55.328;86.106;2023-06-05T04:41:31;99642.25;;;30.18;29.60
78800;BME280;68148;55.328;86.106;2023-06-05T04:43:57;99642.25;;;30.18;30.56
78800;BME280;68148;55.328;86.106;2023-06-05T04:46:23;99633.47;;;30.22;30.68
78800;BME280;68148;55.328;86.106;2023-06-05T04:48:49;99631.88;;;30.29;30.45
78800;BME280;68148;55.328;86.106;2023-06-05T04:51:15;99629.94;;;30.30;30.28
78800;BME280;68148;55.328;86.106;2023-06-05T04:53:41;99632.84;;;30.33;29.78
78800;BME280;68148;55.328;86.106;2023-06-05T04:56:07;99625.13;;;30.44;28.74
78800;BME280;68148;55.328;86.106;2023-06-05T04:58:33;99632.19;;;30.45;28.97
78800;BME280;68148;55.328;86.106;2023-06-05T05:00:59;99623.06;;;30.41;29.69
78800;BME280;68148;55.328;86.106;2023-06-05T05:03:25;99628.34;;;30.46;29.65
78800;BME280;68148;55.328;86.106;2023-06-05T05:05:51;99613.25;;;30.49;28.94
78800;BME280;68148;55.328;86.106;2023-06-05T05:08:17;99614.88;;;30.58;29.22
78800;BME280;68148;55.328;86.106;2023-06-05T05:10:43;99612.81;;;30.38;28.39
78800;BME280;68148;55.328;86.106;2023-06-05T05:13:11;99607.00;;;30.57;28.67
78800;BME280;68148;55.328;86.106;2023-06-05T05:15:37;99605.25;;;30.52;28.61
78800;BME280;68148;55.328;86.106;2023-06-05T05:18:03;99606.38;;;30.77;28.83
78800;BME280;68148;55.328;86.106;2023-06-05T05:20:29;99603.47;;;30.82;28.60
78800;BME280;68148;55.328;86.106;2023-06-05T05:22:55;99607.13;;;30.95;28.69
78800;BME280;68148;55.328;86.106;2023-06-05T05:25:21;99601.22;;;30.93;28.42
78800;BME280;68148;55.328;86.106;2023-06-05T05:27:47;99606.31;;;30.95;28.39
78800;BME280;68148;55.328;86.106;2023-06-05T05:30:16;99604.53;;;31.07;28.79
78800;BME280;68148;55.328;86.106;2023-06-05T05:32:41;99602.09;;;31.14;28.17
78800;BME280;68148;55.328;86.106;2023-06-05T05:35:07;99604.13;;;31.35;28.18
78800;BME280;68148;55.328;86.106;2023-06-05T05:37:33;99593.97;;;31.44;27.66
78800;BME280;68148;55.328;86.106;2023-06-05T05:39:59;99581.13;;;31.45;27.82
78800;BME280;68148;55.328;86.106;2023-06-05T05:42:25;99586.25;;;31.46;27.89
78800;BME280;68148;55.328;86.106;2023-06-05T05:44:51;99580.50;;;31.39;28.19
78800;BME280;68148;55.328;86.106;2023-06-05T05:47:17;99578.66;;;31.52;27.26
78800;BME280;68148;55.328;86.106;2023-06-05T05:49:43;99573.00;;;31.65;27.48
78800;BME280;68148;55.328;86.106;2023-06-05T05:52:09;99572.88;;;31.83;27.24
78800;BME280;68148;55.328;86.106;2023-06-05T05:54:35;99573.34;;;31.85;26.01
78800;BME280;68148;55.328;86.106;2023-06-05T05:57:01;99571.47;;;31.77;26.71
78800;BME280;68148;55.328;86.106;2023-06-05T05:59:26;99564.78;;;31.95;27.11
78800;BME280;68148;55.328;86.106;2023-06-05T06:01:52;99563.53;;;31.92;26.34
78800;BME280;68148;55.328;86.106;2023-06-05T06:04:18;99554.97;;;31.94;26.63
78800;BME280;68148;55.328;86.106;2023-06-05T06:06:44;99556.25;;;32.17;26.15
78800;BME280;68148;55.328;86.106;2023-06-05T06:09:10;99549.44;;;32.45;26.21
78800;BME280;68148;55.328;86.106;2023-06-05T06:11:37;99548.50;;;32.40;25.89
78800;BME280;68148;55.328;86.106;2023-06-05T06:14:02;99540.31;;;32.40;26.06
78800;BME280;68148;55.328;86.106;2023-06-05T06:16:28;99540.09;;;32.25;25.95
78800;BME280;68148;55.328;86.106;2023-06-05T06:18:54;99543.84;;;32.20;26.16
78800;BME280;68148;55.328;86.106;2023-06-05T06:21:20;99548.72;;;32.14;26.33
78800;BME280;68148;55.328;86.106;2023-06-05T06:23:46;99535.41;;;32.46;25.77
78800;BME280;68148;55.328;86.106;2023-06-05T06:26:13;99537.78;;;32.69;25.28
78800;BME280;68148;55.328;86.106;2023-06-05T06:28:38;99537.19;;;32.75;25.21
78800;BME280;68148;55.328;86.106;2023-06-05T06:31:04;99528.41;;;32.57;25.22
78800;BME280;68148;55.328;86.106;2023-06-05T06:33:31;99517.72;;;32.64;26.09
78800;BME280;68148;55.328;86.106;2023-06-05T06:35:57;99521.50;;;32.72;26.07
78800;BME280;68148;55.328;86.106;2023-06-05T06:38:22;99514.56;;;32.87;26.17
78800;BME280;68148;55.328;86.106;2023-06-05T06:40:51;99519.28;;;32.99;25.11
78800;BME280;68148;55.328;86.106;2023-06-05T06:43:17;99504.06;;;32.89;25.05
78800;BME280;68148;55.328;86.106;2023-06-05T06:45:43;99511.50;;;32.76;25.96
78800;BME280;68148;55.328;86.106;2023-06-05T06:48:09;99512.53;;;32.96;26.25
78800;BME280;68148;55.328;86.106;2023-06-05T06:50:35;99512.53;;;33.08;25.85
78800;BME280;68148;55.328;86.106;2023-06-05T06:53:01;99519.84;;;33.17;25.87
78800;BME280;68148;55.328;86.106;2023-06-05T06:55:27;99508.66;;;33.22;25.44
78800;BME280;68148;55.328;86.106;2023-06-05T06:57:53;99506.59;;;33.19;24.96
78800;BME280;68148;55.328;86.106;2023-06-05T07:00:26;99495.53;;;33.39;24.75
78800;BME280;68148;55.328;86.106;2023-06-05T07:02:52;99487.69;;;33.50;24.86
78800;BME280;68148;55.328;86.106;2023-06-05T07:05:17;99489.28;;;33.51;24.75
78800;BME280;68148;55.328;86.106;2023-06-05T07:07:43;99485.34;;;33.64;25.31
78800;BME280;68148;55.328;86.106;2023-06-05T07:10:09;99493.22;;;33.66;24.36
78800;BME280;68148;55.328;86.106;2023-06-05T07:12:35;99482.63;;;33.64;23.70
78800;BME280;68148;55.328;86.106;2023-06-05T07:15:01;99491.50;;;33.61;23.99
78800;BME280;68148;55.328;86.106;2023-06-05T07:17:27;99478.88;;;33.57;24.05
78800;BME280;68148;55.328;86.106;2023-06-05T07:19:53;99486.31;;;33.44;24.12
78800;BME280;68148;55.328;86.106;2023-06-05T07:22:19;99494.97;;;33.22;23.81
78800;BME280;68148;55.328;86.106;2023-06-05T07:24:45;99488.16;;;33.03;23.52
78800;BME280;68148;55.328;86.106;2023-06-05T07:27:11;99486.34;;;32.95;23.66
78800;BME280;68148;55.328;86.106;2023-06-05T07:29:37;99487.38;;;33.15;23.20
78800;BME280;68148;55.328;86.106;2023-06-05T07:32:04;99484.97;;;33.13;23.01
78800;BME280;68148;55.328;86.106;2023-06-05T07:34:33;99466.34;;;33.44;22.48
78800;BME280;68148;55.328;86.106;2023-06-05T07:36:59;99473.50;;;33.60;21.27
78800;BME280;68148;55.328;86.106;2023-06-05T07:39:25;99472.72;;;33.60;21.18
78800;BME280;68148;55.328;86.106;2023-06-05T07:41:51;99473.91;;;33.75;21.06
78800;BME280;68148;55.328;86.106;2023-06-05T07:44:18;99469.84;;;33.69;21.42
78800;BME280;68148;55.328;86.106;2023-06-05T07:46:45;99470.97;;;33.96;21.16
78800;BME280;68148;55.328;86.106;2023-06-05T07:49:12;99460.78;;;34.08;21.89
78800;BME280;68148;55.328;86.106;2023-06-05T07:51:38;99457.72;;;34.10;21.75
78800;BME280;68148;55.328;86.106;2023-06-05T07:54:09;99462.66;;;34.20;20.55
78800;BME280;68148;55.328;86.106;2023-06-05T07:56:35;99465.56;;;34.11;20.69
78800;BME280;68148;55.328;86.106;2023-06-05T07:59:03;99459.13;;;34.20;21.15
78800;BME280;68148;55.328;86.106;2023-06-05T08:01:32;99455.78;;;34.10;21.42
78800;BME280;68148;55.328;86.106;2023-06-05T08:03:58;99448.03;;;34.28;21.45
78800;BME280;68148;55.328;86.106;2023-06-05T08:06:24;99447.72;;;34.02;20.97
78800;BME280;68148;55.328;86.106;2023-06-05T08:08:51;99457.00;;;33.85;21.65
78800;BME280;68148;55.328;86.106;2023-06-05T08:11:17;99440.22;;;34.14;21.21
78800;BME280;68148;55.328;86.106;2023-06-05T08:13:43;99440.22;;;34.30;20.74
78800;BME280;68148;55.328;86.106;2023-06-05T08:16:09;99444.13;;;34.29;20.84
78800;BME280;68148;55.328;86.106;2023-06-05T08:18:43;99440.59;;;34.29;20.87
78800;BME280;68148;55.328;86.106;2023-06-05T08:21:09;99436.06;;;34.21;20.80
78800;BME280;68148;55.328;86.106;2023-06-05T08:23:35;99437.94;;;34.32;20.93
78800;BME280;68148;55.328;86.106;2023-06-05T08:26:02;99440.22;;;34.30;20.83
78800;BME280;68148;55.328;86.106;2023-06-05T08:28:30;99432.00;;;34.30;21.16
78800;BME280;68148;55.328;86.106;2023-06-05T08:30:56;99434.41;;;34.32;21.14
78800;BME280;68148;55.328;86.106;2023-06-05T08:33:22;99431.31;;;34.18;21.25
78800;BME280;68148;55.328;86.106;2023-06-05T08:35:48;99434.13;;;34.21;21.66
78800;BME280;68148;55.328;86.106;2023-06-05T08:38:14;99446.28;;;34.52;20.69
78800;BME280;68148;55.328;86.106;2023-06-05T08:40:41;99425.88;;;34.65;20.43
78800;BME280;68148;55.328;86.106;2023-06-05T08:43:08;99420.72;;;34.63;20.37
78800;BME280;68148;55.328;86.106;2023-06-05T08:45:34;99424.78;;;34.38;21.15
78800;BME280;68148;55.328;86.106;2023-06-05T08:48:00;99422.66;;;34.16;21.18
78800;BME280;68148;55.328;86.106;2023-06-05T08:50:29;99429.78;;;34.04;21.84
78800;BME280;68148;55.328;86.106;2023-06-05T08:52:59;99441.53;;;33.77;22.20
78800;BME280;68148;55.328;86.106;2023-06-05T08:55:27;99431.38;;;33.77;22.50
78800;BME280;68148;55.328;86.106;2023-06-05T08:57:53;99430.41;;;33.98;21.97
78800;BME280;68148;55.328;86.106;2023-06-05T09:00:19;99434.31;;;34.28;21.27
78800;BME280;68148;55.328;86.106;2023-06-05T09:02:47;99429.81;;;34.36;21.56
78800;BME280;68148;55.328;86.106;2023-06-05T09:05:14;99414.19;;;34.36;21.46
78800;BME280;68148;55.328;86.106;2023-06-05T09:07:40;99418.31;;;34.46;20.94
78800;BME280;68148;55.328;86.106;2023-06-05T09:10:21;99414.09;;;34.33;21.18
78800;BME280;68148;55.328;86.106;2023-06-05T09:12:58;99419.66;;;34.36;21.49
78800;BME280;68148;55.328;86.106;2023-06-05T09:15:26;99406.41;;;34.23;20.98
78800;BME280;68148;55.328;86.106;2023-06-05T09:18:09;99408.25;;;34.19;21.69
78800;BME280;68148;55.328;86.106;2023-06-05T09:20:37;99391.56;;;34.24;21.60
78800;BME280;68148;55.328;86.106;2023-06-05T09:23:20;99406.41;;;34.23;21.26
78800;BME280;68148;55.328;86.106;2023-06-05T09:25:47;99407.28;;;34.27;21.26
78800;BME280;68148;55.328;86.106;2023-06-05T09:28:14;99409.66;;;34.28;21.45
78800;BME280;68148;55.328;86.106;2023-06-05T09:30:54;99409.22;;;34.42;22.18
78800;BME280;68148;55.328;86.106;2023-06-05T09:33:20;99401.56;;;34.48;20.80
78800;BME280;68148;55.328;86.106;2023-06-05T09:36:09;99401.22;;;34.49;20.65
78800;BME280;68148;55.328;86.106;2023-06-05T09:38:37;99402.44;;;34.68;20.70
78800;BME280;68148;55.328;86.106;2023-06-05T09:41:03;99407.81;;;34.80;21.07
78800;BME280;68148;55.328;86.106;2023-06-05T09:43:30;99394.38;;;34.75;20.06
78800;BME280;68148;55.328;86.106;2023-06-05T09:45:55;99395.78;;;34.69;20.49
78800;BME280;68148;55.328;86.106;2023-06-05T09:48:22;99393.50;;;34.71;19.79
78800;BME280;68148;55.328;86.106;2023-06-05T09:50:47;99393.59;;;34.74;20.29
78800;BME280;68148;55.328;86.106;2023-06-05T09:53:17;99401.91;;;34.78;19.88
78800;BME280;68148;55.328;86.106;2023-06-05T09:55:48;99401.03;;;34.74;20.22
78800;BME280;68148;55.328;86.106;2023-06-05T09:58:15;99396.59;;;34.69;20.07
78800;BME280;68148;55.328;86.106;2023-06-05T10:00:41;99405.66;;;34.89;19.31
78800;BME280;68148;55.328;86.106;2023-06-05T10:03:14;99398.28;;;34.74;19.59
78800;BME280;68148;55.328;86.106;2023-06-05T10:05:43;99408.00;;;34.71;19.77
78800;BME280;68148;55.328;86.106;2023-06-05T10:08:11;99393.50;;;34.71;19.17
78800;BME280;68148;55.328;86.106;2023-06-05T10:10:39;99396.34;;;34.58;19.60
78800;BME280;68148;55.328;86.106;2023-06-05T10:13:06;99394.38;;;34.59;19.33
78800;BME280;68148;55.328;86.106;2023-06-05T10:15:32;99393.78;;;34.66;19.15
78800;BME280;68148;55.328;86.106;2023-06-05T10:17:58;99398.28;;;34.74;18.77
78800;BME280;68148;55.328;86.106;2023-06-05T10:20:24;99396.41;;;34.78;19.02
78800;BME280;68148;55.328;86.106;2023-06-05T10:22:50;99392.34;;;34.72;19.20
78800;BME280;68148;55.328;86.106;2023-06-05T10:25:17;99399.69;;;34.68;19.09
78800;BME280;68148;55.328;86.106;2023-06-05T10:30:59;99397.00;;;34.87;18.17
78800;BME280;68148;55.328;86.106;2023-06-05T10:33:31;99402.44;;;34.68;18.44
78800;BME280;68148;55.328;86.106;2023-06-05T10:36:29;99393.50;;;34.71;18.50
78800;BME280;68148;55.328;86.106;2023-06-05T10:38:58;99392.19;;;34.49;18.70
78800;BME280;68148;55.328;86.106;2023-06-05T10:41:24;99396.31;;;34.43;18.92
78800;BME280;68148;55.328;86.106;2023-06-05T10:43:54;99384.84;;;34.37;19.10
78800;BME280;68148;55.328;86.106;2023-06-05T10:46:33;99389.00;;;34.31;18.25
78800;BME280;68148;55.328;86.106;2023-06-05T10:49:18;99389.69;;;34.28;18.33
78800;BME280;68148;55.328;86.106;2023-06-05T10:51:51;99393.75;;;34.34;18.97
78800;BME280;68148;55.328;86.106;2023-06-05T10:59:18;99394.16;;;34.48;18.54
78800;BME280;68148;55.328;86.106;2023-06-05T11:05:02;99396.44;;;34.62;18.09
78800;BME280;68148;55.328;86.106;2023-06-05T11:07:29;99393.78;;;34.50;18.35
78800;BME280;68148;55.328;86.106;2023-06-05T11:10:11;99387.22;;;34.23;18.61
78800;BME280;68148;55.328;86.106;2023-06-05T11:17:52;99388.13;;;34.27;18.78
78800;BME280;68148;55.328;86.106;2023-06-05T11:27:58;99372.63;;;34.34;18.38
78800;BME280;68148;55.328;86.106;2023-06-05T11:30:29;99378.09;;;34.34;17.55
78800;BME280;68148;55.328;86.106;2023-06-05T11:32:55;99377.31;;;34.34;17.80
78800;BME280;68148;55.328;86.106;2023-06-05T11:35:22;99380.94;;;34.38;18.13
78800;BME280;68148;55.328;86.106;2023-06-05T11:37:48;99384.94;;;34.56;18.05
78800;BME280;68148;55.328;86.106;2023-06-05T11:40:24;99373.53;;;34.54;18.26
78800;BME280;68148;55.328;86.106;2023-06-05T11:42:50;99371.75;;;34.62;17.91
78800;BME280;68148;55.328;86.106;2023-06-05T11:45:16;99374.69;;;34.69;17.46
78800;BME280;68148;55.328;86.106;2023-06-05T11:47:42;99375.56;;;34.57;18.07
78800;BME280;68148;55.328;86.106;2023-06-05T11:50:12;99372.53;;;34.47;18.33
78800;BME280;68148;55.328;86.106;2023-06-05T11:52:39;99367.34;;;34.57;17.69
78800;BME280;68148;55.328;86.106;2023-06-05T11:55:14;99362.75;;;34.61;17.91
78800;BME280;68148;55.328;86.106;2023-06-05T11:57:44;99363.97;;;34.64;18.82
78800;BME280;68148;55.328;86.106;2023-06-05T12:00:13;99364.09;;;34.87;18.01
78800;BME280;68148;55.328;86.106;2023-06-05T12:02:41;99363.22;;;34.83;17.92
78800;BME280;68148;55.328;86.106;2023-06-05T12:05:08;99368.34;;;34.84;18.25
78800;BME280;68148;55.328;86.106;2023-06-05T12:07:35;99366.16;;;34.74;18.05
78800;BME280;68148;55.328;86.106;2023-06-05T12:10:01;99352.56;;;34.78;17.96
78800;BME280;68148;55.328;86.106;2023-06-05T12:12:27;99353.00;;;34.64;18.35
78800;BME280;68148;55.328;86.106;2023-06-05T12:14:53;99356.97;;;34.67;18.33
78800;BME280;68148;55.328;86.106;2023-06-05T12:17:19;99358.16;;;34.85;17.71
78800;BME280;68148;55.328;86.106;2023-06-05T12:19:52;99356.50;;;34.80;17.83
78800;BME280;68148;55.328;86.106;2023-06-05T12:22:18;99357.47;;;34.88;18.29
78800;BME280;68148;55.328;86.106;2023-06-05T12:24:44;99358.88;;;34.98;18.56
78800;BME280;68148;55.328;86.106;2023-06-05T12:27:10;99361.28;;;34.99;17.67
78800;BME280;68148;55.328;86.106;2023-06-05T12:29:38;99362.25;;;34.91;18.14
78800;BME280;68148;55.328;86.106;2023-06-05T12:32:22;99363.75;;;34.88;17.06
78800;BME280;68148;55.328;86.106;2023-06-05T12:34:50;99362.09;;;34.68;17.42
78800;BME280;68148;55.328;86.106;2023-06-05T12:37:24;99361.47;;;34.75;18.24
78800;BME280;68148;55.328;86.106;2023-06-05T12:39:50;99359.63;;;34.79;17.91
78800;BME280;68148;55.328;86.106;2023-06-05T12:42:16;99351.69;;;34.93;17.82
78800;BME280;68148;55.328;86.106;2023-06-05T12:44:42;99361.00;;;34.88;18.16
78800;BME280;68148;55.328;86.106;2023-06-05T12:47:08;99351.81;;;34.81;18.04
78800;BME280;68148;55.328;86.106;2023-06-05T12:49:34;99354.22;;;34.82;19.10
78800;BME280;68148;55.328;86.106;2023-06-05T12:52:00;99353.22;;;34.91;18.80
78800;BME280;68148;55.328;86.106;2023-06-05T12:54:26;99347.66;;;34.87;18.68
78800;BME280;68148;55.328;86.106;2023-06-05T12:56:52;99349.81;;;34.78;18.34
78800;BME280;68148;55.328;86.106;2023-06-05T12:59:18;99350.59;;;34.78;19.08
78800;BME280;68148;55.328;86.106;2023-06-05T13:01:43;99350.59;;;34.78;18.35
78800;BME280;68148;55.328;86.106;2023-06-05T13:04:09;99350.94;;;34.77;18.44
78800;BME280;68148;55.328;86.106;2023-06-05T13:06:35;99350.69;;;34.82;18.91
78800;BME280;68148;55.328;86.106;2023-06-05T13:09:01;99348.19;;;34.77;19.07
78800;BME280;68148;55.328;86.106;2023-06-05T13:11:30;99345.75;;;34.72;19.14
78800;BME280;68148;55.328;86.106;2023-06-05T13:13:55;99358.56;;;34.68;18.53
78800;BME280;68148;55.328;86.106;2023-06-05T13:16:21;99347.63;;;34.52;18.93